Aviation Digital Data Service (ADDS)

Output produced by METARs form (1406 UTC 19 January 2019)
found at http://www.aviationweather.gov/metar/data/
 
METAR text: UNNT 191330Z 17003MPS CAVOK M08/M12 Q1022 R25/810155 R16/390150 NOSIG RMK QFE756/1009
Conditions at: UNNT (TOLMACHEVO , RU) observed 1330 UTC 19 January 2019
Temperature: -8.0°C (18°F)
Dewpoint: -12.0°C (10°F) [RH = 73%]
Pressure (altimeter): 30.18 inches Hg (1022.0 mb)
Winds: from the S (170 degrees) at 7 MPH (6 knots; 3.1 m/s)
Visibility: 6 or more miles (10+ km)
Ceiling: ceiling and visibility are OK
Clouds: unknown
Weather: no significant weather observed at this time

METAR text: UNNT 191300Z 18004MPS CAVOK M07/M10 Q1022 R25/810155 R16/390150 NOSIG RMK QFE756/1008
Conditions at: UNNT (TOLMACHEVO , RU) observed 1300 UTC 19 January 2019
Temperature: -7.0°C (19°F)
Dewpoint: -10.0°C (14°F) [RH = 79%]
Pressure (altimeter): 30.18 inches Hg (1022.0 mb)
Winds: from the S (180 degrees) at 9 MPH (8 knots; 4.1 m/s)
Visibility: 6 or more miles (10+ km)
Ceiling: ceiling and visibility are OK
Clouds: unknown
Weather: no significant weather observed at this time

METAR text: UNNT 191230Z 17004MPS CAVOK M08/M12 Q1022 R25/810155 R16/390150 NOSIG RMK QFE756/1008
Conditions at: UNNT (TOLMACHEVO , RU) observed 1230 UTC 19 January 2019
Temperature: -8.0°C (18°F)
Dewpoint: -12.0°C (10°F) [RH = 73%]
Pressure (altimeter): 30.18 inches Hg (1022.0 mb)
Winds: from the S (170 degrees) at 9 MPH (8 knots; 4.1 m/s)
Visibility: 6 or more miles (10+ km)
Ceiling: ceiling and visibility are OK
Clouds: unknown
Weather: no significant weather observed at this time

METAR text: UNNT 191200Z 17004MPS CAVOK M08/M11 Q1022 R25/810155 R16/390150 NOSIG RMK QFE756/1008
Conditions at: UNNT (TOLMACHEVO , RU) observed 1200 UTC 19 January 2019
Temperature: -8.0°C (18°F)
Dewpoint: -11.0°C (12°F) [RH = 79%]
Pressure (altimeter): 30.18 inches Hg (1022.0 mb)
Winds: from the S (170 degrees) at 9 MPH (8 knots; 4.1 m/s)
Visibility: 6 or more miles (10+ km)
Ceiling: ceiling and visibility are OK
Clouds: unknown
Weather: no significant weather observed at this time

METAR text: UNNT 191130Z 17003MPS CAVOK M07/M12 Q1021 R25/390150 R16/390150 NOSIG RMK QFE756/1008
Conditions at: UNNT (TOLMACHEVO , RU) observed 1130 UTC 19 January 2019
Temperature: -7.0°C (19°F)
Dewpoint: -12.0°C (10°F) [RH = 67%]
Pressure (altimeter): 30.15 inches Hg (1021.0 mb)
Winds: from the S (170 degrees) at 7 MPH (6 knots; 3.1 m/s)
Visibility: 6 or more miles (10+ km)
Ceiling: ceiling and visibility are OK
Clouds: unknown
Weather: no significant weather observed at this time

METAR text: UNNT 191100Z 17004MPS CAVOK M07/M11 Q1021 R25/390150 R16/390150 NOSIG RMK QFE756/1008
Conditions at: UNNT (TOLMACHEVO , RU) observed 1100 UTC 19 January 2019
Temperature: -7.0°C (19°F)
Dewpoint: -11.0°C (12°F) [RH = 73%]
Pressure (altimeter): 30.15 inches Hg (1021.0 mb)
Winds: from the S (170 degrees) at 9 MPH (8 knots; 4.1 m/s)
Visibility: 6 or more miles (10+ km)
Ceiling: ceiling and visibility are OK
Clouds: unknown
Weather: no significant weather observed at this time

METAR text: UNNT 191030Z 18004MPS CAVOK M05/M10 Q1020 R25/390150 R16/390150 NOSIG RMK QFE755/1007
Conditions at: UNNT (TOLMACHEVO , RU) observed 1030 UTC 19 January 2019
Temperature: -5.0°C (23°F)
Dewpoint: -10.0°C (14°F) [RH = 68%]
Pressure (altimeter): 30.12 inches Hg (1020.0 mb)
Winds: from the S (180 degrees) at 9 MPH (8 knots; 4.1 m/s)
Visibility: 6 or more miles (10+ km)
Ceiling: ceiling and visibility are OK
Clouds: unknown
Weather: no significant weather observed at this time

METAR text: UNNT 191000Z 17004MPS CAVOK M06/M11 Q1021 R25/390150 R16/390150 NOSIG RMK QFE755/1007
Conditions at: UNNT (TOLMACHEVO , RU) observed 1000 UTC 19 January 2019
Temperature: -6.0°C (21°F)
Dewpoint: -11.0°C (12°F) [RH = 68%]
Pressure (altimeter): 30.15 inches Hg (1021.0 mb)
Winds: from the S (170 degrees) at 9 MPH (8 knots; 4.1 m/s)
Visibility: 6 or more miles (10+ km)
Ceiling: ceiling and visibility are OK
Clouds: unknown
Weather: no significant weather observed at this time

METAR text: UNNT 190930Z 17003MPS CAVOK M05/M10 Q1021 R25/390150 R16/390150 NOSIG RMK QFE755/1007
Conditions at: UNNT (TOLMACHEVO , RU) observed 0930 UTC 19 January 2019
Temperature: -5.0°C (23°F)
Dewpoint: -10.0°C (14°F) [RH = 68%]
Pressure (altimeter): 30.15 inches Hg (1021.0 mb)
Winds: from the S (170 degrees) at 7 MPH (6 knots; 3.1 m/s)
Visibility: 6 or more miles (10+ km)
Ceiling: ceiling and visibility are OK
Clouds: unknown
Weather: no significant weather observed at this time

METAR text: UNNT 190900Z 17005MPS CAVOK M05/M10 Q1021 R25/390150 R16/390150 NOSIG RMK QFE755/1007
Conditions at: UNNT (TOLMACHEVO , RU) observed 0900 UTC 19 January 2019
Temperature: -5.0°C (23°F)
Dewpoint: -10.0°C (14°F) [RH = 68%]
Pressure (altimeter): 30.15 inches Hg (1021.0 mb)
Winds: from the S (170 degrees) at 12 MPH (10 knots; 5.1 m/s)
Visibility: 6 or more miles (10+ km)
Ceiling: ceiling and visibility are OK
Clouds: unknown
Weather: no significant weather observed at this time

METAR text: UNNT 190830Z 17005MPS CAVOK M05/M10 Q1021 R25/390150 R16/390150 NOSIG RMK QFE755/1007
Conditions at: UNNT (TOLMACHEVO , RU) observed 0830 UTC 19 January 2019
Temperature: -5.0°C (23°F)
Dewpoint: -10.0°C (14°F) [RH = 68%]
Pressure (altimeter): 30.15 inches Hg (1021.0 mb)
Winds: from the S (170 degrees) at 12 MPH (10 knots; 5.1 m/s)
Visibility: 6 or more miles (10+ km)
Ceiling: ceiling and visibility are OK
Clouds: unknown
Weather: no significant weather observed at this time

METAR text: UNNT 190800Z 18005MPS CAVOK M04/M10 Q1021 R25/390150 R16/390135 NOSIG RMK QFE755/1007
Conditions at: UNNT (TOLMACHEVO , RU) observed 0800 UTC 19 January 2019
Temperature: -4.0°C (25°F)
Dewpoint: -10.0°C (14°F) [RH = 63%]
Pressure (altimeter): 30.15 inches Hg (1021.0 mb)
Winds: from the S (180 degrees) at 12 MPH (10 knots; 5.1 m/s)
Visibility: 6 or more miles (10+ km)
Ceiling: ceiling and visibility are OK
Clouds: unknown
Weather: no significant weather observed at this time

METAR text: UNNT 190730Z 17004MPS CAVOK M06/M11 Q1021 R25/390150 R16/390135 NOSIG RMK QFE756/1008
Conditions at: UNNT (TOLMACHEVO , RU) observed 0730 UTC 19 January 2019
Temperature: -6.0°C (21°F)
Dewpoint: -11.0°C (12°F) [RH = 68%]
Pressure (altimeter): 30.15 inches Hg (1021.0 mb)
Winds: from the S (170 degrees) at 9 MPH (8 knots; 4.1 m/s)
Visibility: 6 or more miles (10+ km)
Ceiling: ceiling and visibility are OK
Clouds: unknown
Weather: no significant weather observed at this time

METAR text: UNNT 190700Z 16003MPS CAVOK M07/M11 Q1022 R25/390150 R16/390135 NOSIG RMK QFE756/1008
Conditions at: UNNT (TOLMACHEVO , RU) observed 0700 UTC 19 January 2019
Temperature: -7.0°C (19°F)
Dewpoint: -11.0°C (12°F) [RH = 73%]
Pressure (altimeter): 30.18 inches Hg (1022.0 mb)
Winds: from the SSE (160 degrees) at 7 MPH (6 knots; 3.1 m/s)
Visibility: 6 or more miles (10+ km)
Ceiling: ceiling and visibility are OK
Clouds: unknown
Weather: no significant weather observed at this time

METAR text: UNNT 190630Z 17002MPS CAVOK M07/M12 Q1022 R25/390136 R16/390135 NOSIG RMK QFE756/1008
Conditions at: UNNT (TOLMACHEVO , RU) observed 0630 UTC 19 January 2019
Temperature: -7.0°C (19°F)
Dewpoint: -12.0°C (10°F) [RH = 67%]
Pressure (altimeter): 30.18 inches Hg (1022.0 mb)
Winds: from the S (170 degrees) at 5 MPH (4 knots; 2.1 m/s)
Visibility: 6 or more miles (10+ km)
Ceiling: ceiling and visibility are OK
Clouds: unknown
Weather: no significant weather observed at this time

METAR text: UNNT 190600Z 17003MPS CAVOK M07/M11 Q1022 R25/390136 R16/390135 NOSIG RMK QFE756/1008
Conditions at: UNNT (TOLMACHEVO , RU) observed 0600 UTC 19 January 2019
Temperature: -7.0°C (19°F)
Dewpoint: -11.0°C (12°F) [RH = 73%]
Pressure (altimeter): 30.18 inches Hg (1022.0 mb)
Winds: from the S (170 degrees) at 7 MPH (6 knots; 3.1 m/s)
Visibility: 6 or more miles (10+ km)
Ceiling: ceiling and visibility are OK
Clouds: unknown
Weather: no significant weather observed at this time

METAR text: UNNT 190530Z 18005MPS CAVOK M07/M11 Q1022 R25/390136 R16/390135 NOSIG RMK QFE756/1009
Conditions at: UNNT (TOLMACHEVO , RU) observed 0530 UTC 19 January 2019
Temperature: -7.0°C (19°F)
Dewpoint: -11.0°C (12°F) [RH = 73%]
Pressure (altimeter): 30.18 inches Hg (1022.0 mb)
Winds: from the S (180 degrees) at 12 MPH (10 knots; 5.1 m/s)
Visibility: 6 or more miles (10+ km)
Ceiling: ceiling and visibility are OK
Clouds: unknown
Weather: no significant weather observed at this time

METAR text: UNNT 190500Z 19004MPS CAVOK M07/M11 Q1022 R25/390136 R16/390135 NOSIG RMK QFE756/1009
Conditions at: UNNT (TOLMACHEVO , RU) observed 0500 UTC 19 January 2019
Temperature: -7.0°C (19°F)
Dewpoint: -11.0°C (12°F) [RH = 73%]
Pressure (altimeter): 30.18 inches Hg (1022.0 mb)
Winds: from the S (190 degrees) at 9 MPH (8 knots; 4.1 m/s)
Visibility: 6 or more miles (10+ km)
Ceiling: ceiling and visibility are OK
Clouds: unknown
Weather: no significant weather observed at this time

METAR text: UNNT 190430Z 19004MPS CAVOK M07/M12 Q1022 R25/390136 R16/390135 NOSIG RMK QFE756/1009
Conditions at: UNNT (TOLMACHEVO , RU) observed 0430 UTC 19 January 2019
Temperature: -7.0°C (19°F)
Dewpoint: -12.0°C (10°F) [RH = 67%]
Pressure (altimeter): 30.18 inches Hg (1022.0 mb)
Winds: from the S (190 degrees) at 9 MPH (8 knots; 4.1 m/s)
Visibility: 6 or more miles (10+ km)
Ceiling: ceiling and visibility are OK
Clouds: unknown
Weather: no significant weather observed at this time

METAR text: UNNT 190400Z 18005MPS CAVOK M09/M12 Q1022 R25/390136 R16/390135 NOSIG RMK QFE756/1008
Conditions at: UNNT (TOLMACHEVO , RU) observed 0400 UTC 19 January 2019
Temperature: -9.0°C (16°F)
Dewpoint: -12.0°C (10°F) [RH = 79%]
Pressure (altimeter): 30.18 inches Hg (1022.0 mb)
Winds: from the S (180 degrees) at 12 MPH (10 knots; 5.1 m/s)
Visibility: 6 or more miles (10+ km)
Ceiling: ceiling and visibility are OK
Clouds: unknown
Weather: no significant weather observed at this time

METAR text: UNNT 190330Z 17004MPS CAVOK M09/M12 Q1022 R25/390136 R16/390135 NOSIG RMK QFE756/1008
Conditions at: UNNT (TOLMACHEVO , RU) observed 0330 UTC 19 January 2019
Temperature: -9.0°C (16°F)
Dewpoint: -12.0°C (10°F) [RH = 79%]
Pressure (altimeter): 30.18 inches Hg (1022.0 mb)
Winds: from the S (170 degrees) at 9 MPH (8 knots; 4.1 m/s)
Visibility: 6 or more miles (10+ km)
Ceiling: ceiling and visibility are OK
Clouds: unknown
Weather: no significant weather observed at this time

METAR text: UNNT 190300Z 18005MPS CAVOK M09/M12 Q1022 R25/390136 R16/390135 NOSIG RMK QFE756/1009
Conditions at: UNNT (TOLMACHEVO , RU) observed 0300 UTC 19 January 2019
Temperature: -9.0°C (16°F)
Dewpoint: -12.0°C (10°F) [RH = 79%]
Pressure (altimeter): 30.18 inches Hg (1022.0 mb)
Winds: from the S (180 degrees) at 12 MPH (10 knots; 5.1 m/s)
Visibility: 6 or more miles (10+ km)
Ceiling: ceiling and visibility are OK
Clouds: unknown
Weather: no significant weather observed at this time

METAR text: UNNT 190230Z 18004MPS CAVOK M09/M12 Q1022 R25/390136 R16/390135 NOSIG RMK QFE756/1009
Conditions at: UNNT (TOLMACHEVO , RU) observed 0230 UTC 19 January 2019
Temperature: -9.0°C (16°F)
Dewpoint: -12.0°C (10°F) [RH = 79%]
Pressure (altimeter): 30.18 inches Hg (1022.0 mb)
Winds: from the S (180 degrees) at 9 MPH (8 knots; 4.1 m/s)
Visibility: 6 or more miles (10+ km)
Ceiling: ceiling and visibility are OK
Clouds: unknown
Weather: no significant weather observed at this time

METAR text: UNNT 190200Z 18005MPS CAVOK M09/M12 Q1022 R25/490145 R16/490145 NOSIG RMK QFE756/1009
Conditions at: UNNT (TOLMACHEVO , RU) observed 0200 UTC 19 January 2019
Temperature: -9.0°C (16°F)
Dewpoint: -12.0°C (10°F) [RH = 79%]
Pressure (altimeter): 30.18 inches Hg (1022.0 mb)
Winds: from the S (180 degrees) at 12 MPH (10 knots; 5.1 m/s)
Visibility: 6 or more miles (10+ km)
Ceiling: ceiling and visibility are OK
Clouds: unknown
Weather: no significant weather observed at this time

METAR text: UNNT 190130Z 18004MPS CAVOK M08/M12 Q1022 R25/490145 R16/490145 NOSIG RMK QFE756/1009
Conditions at: UNNT (TOLMACHEVO , RU) observed 0130 UTC 19 January 2019
Temperature: -8.0°C (18°F)
Dewpoint: -12.0°C (10°F) [RH = 73%]
Pressure (altimeter): 30.18 inches Hg (1022.0 mb)
Winds: from the S (180 degrees) at 9 MPH (8 knots; 4.1 m/s)
Visibility: 6 or more miles (10+ km)
Ceiling: ceiling and visibility are OK
Clouds: unknown
Weather: no significant weather observed at this time

METAR text: UNNT 190100Z 18006MPS CAVOK M08/M11 Q1022 R25/490145 R16/490145 NOSIG RMK QFE756/1008
Conditions at: UNNT (TOLMACHEVO , RU) observed 0100 UTC 19 January 2019
Temperature: -8.0°C (18°F)
Dewpoint: -11.0°C (12°F) [RH = 79%]
Pressure (altimeter): 30.18 inches Hg (1022.0 mb)
Winds: from the S (180 degrees) at 14 MPH (12 knots; 6.2 m/s)
Visibility: 6 or more miles (10+ km)
Ceiling: ceiling and visibility are OK
Clouds: unknown
Weather: no significant weather observed at this time

METAR text: UNNT 190030Z 18006MPS CAVOK M08/M11 Q1022 R25/490145 R16/490145 NOSIG RMK QFE756/1008
Conditions at: UNNT (TOLMACHEVO , RU) observed 0030 UTC 19 January 2019
Temperature: -8.0°C (18°F)
Dewpoint: -11.0°C (12°F) [RH = 79%]
Pressure (altimeter): 30.18 inches Hg (1022.0 mb)
Winds: from the S (180 degrees) at 14 MPH (12 knots; 6.2 m/s)
Visibility: 6 or more miles (10+ km)
Ceiling: ceiling and visibility are OK
Clouds: unknown
Weather: no significant weather observed at this time

METAR text: UNNT 190000Z 18006MPS CAVOK M08/M11 Q1022 R25/490145 R16/490145 NOSIG RMK QFE756/1008
Conditions at: UNNT (TOLMACHEVO , RU) observed 0000 UTC 19 January 2019
Temperature: -8.0°C (18°F)
Dewpoint: -11.0°C (12°F) [RH = 79%]
Pressure (altimeter): 30.18 inches Hg (1022.0 mb)
Winds: from the S (180 degrees) at 14 MPH (12 knots; 6.2 m/s)
Visibility: 6 or more miles (10+ km)
Ceiling: ceiling and visibility are OK
Clouds: unknown
Weather: no significant weather observed at this time

METAR text: UNNT 182330Z 18006MPS CAVOK M08/M10 Q1022 R16/490145 R25/490145 NOSIG RMK QFE756/1009
Conditions at: UNNT (TOLMACHEVO , RU) observed 2330 UTC 18 January 2019
Temperature: -8.0°C (18°F)
Dewpoint: -10.0°C (14°F) [RH = 85%]
Pressure (altimeter): 30.18 inches Hg (1022.0 mb)
Winds: from the S (180 degrees) at 14 MPH (12 knots; 6.2 m/s)
Visibility: 6 or more miles (10+ km)
Ceiling: ceiling and visibility are OK
Clouds: unknown
Weather: no significant weather observed at this time

METAR text: UNNT 182300Z 19006MPS CAVOK M08/M10 Q1022 R16/490145 R25/490145 NOSIG RMK QFE756/1009
Conditions at: UNNT (TOLMACHEVO , RU) observed 2300 UTC 18 January 2019
Temperature: -8.0°C (18°F)
Dewpoint: -10.0°C (14°F) [RH = 85%]
Pressure (altimeter): 30.18 inches Hg (1022.0 mb)
Winds: from the S (190 degrees) at 14 MPH (12 knots; 6.2 m/s)
Visibility: 6 or more miles (10+ km)
Ceiling: ceiling and visibility are OK
Clouds: unknown
Weather: no significant weather observed at this time

METAR text: UNNT 182230Z 18005MPS CAVOK M08/M10 Q1022 R16/490145 R25/490145 NOSIG RMK QFE756/1009
Conditions at: UNNT (TOLMACHEVO , RU) observed 2230 UTC 18 January 2019
Temperature: -8.0°C (18°F)
Dewpoint: -10.0°C (14°F) [RH = 85%]
Pressure (altimeter): 30.18 inches Hg (1022.0 mb)
Winds: from the S (180 degrees) at 12 MPH (10 knots; 5.1 m/s)
Visibility: 6 or more miles (10+ km)
Ceiling: ceiling and visibility are OK
Clouds: unknown
Weather: no significant weather observed at this time

METAR text: UNNT 182200Z 17004MPS CAVOK M09/M11 Q1022 R16/490145 R25/490145 NOSIG RMK QFE757/1009
Conditions at: UNNT (TOLMACHEVO , RU) observed 2200 UTC 18 January 2019
Temperature: -9.0°C (16°F)
Dewpoint: -11.0°C (12°F) [RH = 85%]
Pressure (altimeter): 30.18 inches Hg (1022.0 mb)
Winds: from the S (170 degrees) at 9 MPH (8 knots; 4.1 m/s)
Visibility: 6 or more miles (10+ km)
Ceiling: ceiling and visibility are OK
Clouds: unknown
Weather: no significant weather observed at this time

METAR text: UNNT 182130Z 16004MPS CAVOK M08/M10 Q1022 R16/490145 R25/490145 NOSIG RMK QFE757/1009
Conditions at: UNNT (TOLMACHEVO , RU) observed 2130 UTC 18 January 2019
Temperature: -8.0°C (18°F)
Dewpoint: -10.0°C (14°F) [RH = 85%]
Pressure (altimeter): 30.18 inches Hg (1022.0 mb)
Winds: from the SSE (160 degrees) at 9 MPH (8 knots; 4.1 m/s)
Visibility: 6 or more miles (10+ km)
Ceiling: ceiling and visibility are OK
Clouds: unknown
Weather: no significant weather observed at this time

METAR text: UNNT 182100Z 17004MPS CAVOK M08/M10 Q1023 R16/490145 R25/490145 NOSIG RMK QFE757/1009
Conditions at: UNNT (TOLMACHEVO , RU) observed 2100 UTC 18 January 2019
Temperature: -8.0°C (18°F)
Dewpoint: -10.0°C (14°F) [RH = 85%]
Pressure (altimeter): 30.21 inches Hg (1023.0 mb)
Winds: from the S (170 degrees) at 9 MPH (8 knots; 4.1 m/s)
Visibility: 6 or more miles (10+ km)
Ceiling: ceiling and visibility are OK
Clouds: unknown
Weather: no significant weather observed at this time

METAR text: UNNT 182030Z 16006MPS CAVOK M08/M10 Q1023 R16/490145 R25/490145 NOSIG RMK QFE757/1009
Conditions at: UNNT (TOLMACHEVO , RU) observed 2030 UTC 18 January 2019
Temperature: -8.0°C (18°F)
Dewpoint: -10.0°C (14°F) [RH = 85%]
Pressure (altimeter): 30.21 inches Hg (1023.0 mb)
Winds: from the SSE (160 degrees) at 14 MPH (12 knots; 6.2 m/s)
Visibility: 6 or more miles (10+ km)
Ceiling: ceiling and visibility are OK
Clouds: unknown
Weather: no significant weather observed at this time

METAR text: UNNT 182000Z 16006MPS CAVOK M08/M10 Q1023 R16/490145 R25/490145 NOSIG RMK QFE757/1010
Conditions at: UNNT (TOLMACHEVO , RU) observed 2000 UTC 18 January 2019
Temperature: -8.0°C (18°F)
Dewpoint: -10.0°C (14°F) [RH = 85%]
Pressure (altimeter): 30.21 inches Hg (1023.0 mb)
Winds: from the SSE (160 degrees) at 14 MPH (12 knots; 6.2 m/s)
Visibility: 6 or more miles (10+ km)
Ceiling: ceiling and visibility are OK
Clouds: unknown
Weather: no significant weather observed at this time

METAR text: UNNT 181930Z 16005MPS CAVOK M09/M10 Q1024 R16/490145 R25/490145 NOSIG RMK QFE758/1010
Conditions at: UNNT (TOLMACHEVO , RU) observed 1930 UTC 18 January 2019
Temperature: -9.0°C (16°F)
Dewpoint: -10.0°C (14°F) [RH = 92%]
Pressure (altimeter): 30.24 inches Hg (1024.0 mb)
Winds: from the SSE (160 degrees) at 12 MPH (10 knots; 5.1 m/s)
Visibility: 6 or more miles (10+ km)
Ceiling: ceiling and visibility are OK
Clouds: unknown
Weather: no significant weather observed at this time

METAR text: UNNT 181900Z 16005MPS 9999 SCT010 M08/M10 Q1024 R16/490145 R25/490145 NOSIG RMK QFE758/1011
Conditions at: UNNT (TOLMACHEVO , RU) observed 1900 UTC 18 January 2019
Temperature: -8.0°C (18°F)
Dewpoint: -10.0°C (14°F) [RH = 85%]
Pressure (altimeter): 30.24 inches Hg (1024.0 mb)
Winds: from the SSE (160 degrees) at 12 MPH (10 knots; 5.1 m/s)
Visibility: 6 or more miles (10+ km)
Ceiling: at least 12,000 feet AGL
Clouds: scattered clouds at 1000 feet AGL
Weather: no significant weather observed at this time

METAR text: UNNT 181830Z 16004MPS 9999 SCT010 M09/M10 Q1024 R16/490145 R25/490145 NOSIG RMK QFE758/1011
Conditions at: UNNT (TOLMACHEVO , RU) observed 1830 UTC 18 January 2019
Temperature: -9.0°C (16°F)
Dewpoint: -10.0°C (14°F) [RH = 92%]
Pressure (altimeter): 30.24 inches Hg (1024.0 mb)
Winds: from the SSE (160 degrees) at 9 MPH (8 knots; 4.1 m/s)
Visibility: 6 or more miles (10+ km)
Ceiling: at least 12,000 feet AGL
Clouds: scattered clouds at 1000 feet AGL
Weather: no significant weather observed at this time

METAR text: UNNT 181800Z 16004MPS 9999 BKN009 M09/M10 Q1025 R16/490145 R25/490145 NOSIG RMK QFE758/1011
Conditions at: UNNT (TOLMACHEVO , RU) observed 1800 UTC 18 January 2019
Temperature: -9.0°C (16°F)
Dewpoint: -10.0°C (14°F) [RH = 92%]
Pressure (altimeter): 30.27 inches Hg (1025.0 mb)
Winds: from the SSE (160 degrees) at 9 MPH (8 knots; 4.1 m/s)
Visibility: 6 or more miles (10+ km)
Ceiling: 900 feet AGL
Clouds: broken clouds at 900 feet AGL
Weather: no significant weather observed at this time

METAR text: UNNT 181730Z 18004MPS 9999 SCT009 M09/M10 Q1025 R16/490145 R25/490145 NOSIG RMK QFE759/1012
Conditions at: UNNT (TOLMACHEVO , RU) observed 1730 UTC 18 January 2019
Temperature: -9.0°C (16°F)
Dewpoint: -10.0°C (14°F) [RH = 92%]
Pressure (altimeter): 30.27 inches Hg (1025.0 mb)
Winds: from the S (180 degrees) at 9 MPH (8 knots; 4.1 m/s)
Visibility: 6 or more miles (10+ km)
Ceiling: at least 12,000 feet AGL
Clouds: scattered clouds at 900 feet AGL
Weather: no significant weather observed at this time

METAR text: UNNT 181700Z 17004MPS CAVOK M08/M10 Q1025 R25/490145 R16/490145 NOSIG RMK QFE759/1012
Conditions at: UNNT (TOLMACHEVO , RU) observed 1700 UTC 18 January 2019
Temperature: -8.0°C (18°F)
Dewpoint: -10.0°C (14°F) [RH = 85%]
Pressure (altimeter): 30.27 inches Hg (1025.0 mb)
Winds: from the S (170 degrees) at 9 MPH (8 knots; 4.1 m/s)
Visibility: 6 or more miles (10+ km)
Ceiling: ceiling and visibility are OK
Clouds: unknown
Weather: no significant weather observed at this time

METAR text: UNNT 181630Z 17009MPS 9000 SCT010 M08/M10 Q1025 R25/490145 R16/490145 NOSIG RMK QFE758/1011
Conditions at: UNNT (TOLMACHEVO , RU) observed 1630 UTC 18 January 2019
Temperature: -8.0°C (18°F)
Dewpoint: -10.0°C (14°F) [RH = 85%]
Pressure (altimeter): 30.27 inches Hg (1025.0 mb)
Winds: from the S (170 degrees) at 20 MPH (17 knots; 8.7 m/s)
Visibility: 6 miles ( 9 km)
Ceiling: at least 12,000 feet AGL
Clouds: scattered clouds at 1000 feet AGL
Weather: no significant weather observed at this time

METAR text: UNNT 181600Z 17006MPS 9000 BKN008 M09/M10 Q1025 R25/490150 R16/490150 NOSIG RMK QFE759/1012
Conditions at: UNNT (TOLMACHEVO , RU) observed 1600 UTC 18 January 2019
Temperature: -9.0°C (16°F)
Dewpoint: -10.0°C (14°F) [RH = 92%]
Pressure (altimeter): 30.27 inches Hg (1025.0 mb)
Winds: from the S (170 degrees) at 14 MPH (12 knots; 6.2 m/s)
Visibility: 6 miles ( 9 km)
Ceiling: 800 feet AGL
Clouds: broken clouds at 800 feet AGL
Weather: no significant weather observed at this time

METAR text: UNNT 181530Z 17004MPS 9000 OVC008 M10/M11 Q1026 R25/490150 R16/490150 NOSIG RMK QFE759/1012
Conditions at: UNNT (TOLMACHEVO , RU) observed 1530 UTC 18 January 2019
Temperature: -10.0°C (14°F)
Dewpoint: -11.0°C (12°F) [RH = 92%]
Pressure (altimeter): 30.30 inches Hg (1026.0 mb)
Winds: from the S (170 degrees) at 9 MPH (8 knots; 4.1 m/s)
Visibility: 6 miles ( 9 km)
Ceiling: 800 feet AGL
Clouds: overcast cloud deck at 800 feet AGL
Weather: no significant weather observed at this time

METAR text: UNNT 181500Z 26002MPS 9000 OVC009 M09/M11 Q1026 R25/490150 R16/490150 NOSIG RMK QFE760/1013
Conditions at: UNNT (TOLMACHEVO , RU) observed 1500 UTC 18 January 2019
Temperature: -9.0°C (16°F)
Dewpoint: -11.0°C (12°F) [RH = 85%]
Pressure (altimeter): 30.30 inches Hg (1026.0 mb)
Winds: from the W (260 degrees) at 5 MPH (4 knots; 2.1 m/s)
Visibility: 6 miles ( 9 km)
Ceiling: 900 feet AGL
Clouds: overcast cloud deck at 900 feet AGL
Weather: no significant weather observed at this time

METAR text: UNNT 181430Z 21003MPS 9000 BKN010 M08/M10 Q1027 R25/490150 R16/490150 NOSIG RMK QFE760/1013
Conditions at: UNNT (TOLMACHEVO , RU) observed 1430 UTC 18 January 2019
Temperature: -8.0°C (18°F)
Dewpoint: -10.0°C (14°F) [RH = 85%]
Pressure (altimeter): 30.32 inches Hg (1027.0 mb)
Winds: from the SSW (210 degrees) at 7 MPH (6 knots; 3.1 m/s)
Visibility: 6 miles ( 9 km)
Ceiling: 1000 feet AGL
Clouds: broken clouds at 1000 feet AGL
Weather: no significant weather observed at this time

METAR text: UNNT 181400Z 18003MPS 9000 BKN010 M08/M10 Q1027 R25/490150 R16/490150 NOSIG RMK QFE760/1013
Conditions at: UNNT (TOLMACHEVO , RU) observed 1400 UTC 18 January 2019
Temperature: -8.0°C (18°F)
Dewpoint: -10.0°C (14°F) [RH = 85%]
Pressure (altimeter): 30.32 inches Hg (1027.0 mb)
Winds: from the S (180 degrees) at 7 MPH (6 knots; 3.1 m/s)
Visibility: 6 miles ( 9 km)
Ceiling: 1000 feet AGL
Clouds: broken clouds at 1000 feet AGL
Weather: no significant weather observed at this time

METAR text: UNNT 181330Z 18005MPS 9999 OVC009 M08/M10 Q1027 R25/490150 R16/490150 NOSIG RMK QFE760/1013
Conditions at: UNNT (TOLMACHEVO , RU) observed 1330 UTC 18 January 2019
Temperature: -8.0°C (18°F)
Dewpoint: -10.0°C (14°F) [RH = 85%]
Pressure (altimeter): 30.32 inches Hg (1027.0 mb)
Winds: from the S (180 degrees) at 12 MPH (10 knots; 5.1 m/s)
Visibility: 6 or more miles (10+ km)
Ceiling: 900 feet AGL
Clouds: overcast cloud deck at 900 feet AGL
Weather: no significant weather observed at this time

METAR text: UNNT 181300Z 18005MPS 9999 OVC008 M08/M10 Q1027 R25/490150 R16/490150 NOSIG RMK QFE760/1013
Conditions at: UNNT (TOLMACHEVO , RU) observed 1300 UTC 18 January 2019
Temperature: -8.0°C (18°F)
Dewpoint: -10.0°C (14°F) [RH = 85%]
Pressure (altimeter): 30.32 inches Hg (1027.0 mb)
Winds: from the S (180 degrees) at 12 MPH (10 knots; 5.1 m/s)
Visibility: 6 or more miles (10+ km)
Ceiling: 800 feet AGL
Clouds: overcast cloud deck at 800 feet AGL
Weather: no significant weather observed at this time

METAR text: UNNT 181230Z 18007MPS 9000 OVC008 M08/M10 Q1027 R25/490150 R16/490150 NOSIG RMK QFE760/1014
Conditions at: UNNT (TOLMACHEVO , RU) observed 1230 UTC 18 January 2019
Temperature: -8.0°C (18°F)
Dewpoint: -10.0°C (14°F) [RH = 85%]
Pressure (altimeter): 30.32 inches Hg (1027.0 mb)
Winds: from the S (180 degrees) at 16 MPH (14 knots; 7.2 m/s)
Visibility: 6 miles ( 9 km)
Ceiling: 800 feet AGL
Clouds: overcast cloud deck at 800 feet AGL
Weather: no significant weather observed at this time

METAR text: UNNT 181200Z 18005MPS 9999 OVC008 M08/M10 Q1027 R25/490150 R16/490150 NOSIG RMK QFE760/1014
Conditions at: UNNT (TOLMACHEVO , RU) observed 1200 UTC 18 January 2019
Temperature: -8.0°C (18°F)
Dewpoint: -10.0°C (14°F) [RH = 85%]
Pressure (altimeter): 30.32 inches Hg (1027.0 mb)
Winds: from the S (180 degrees) at 12 MPH (10 knots; 5.1 m/s)
Visibility: 6 or more miles (10+ km)
Ceiling: 800 feet AGL
Clouds: overcast cloud deck at 800 feet AGL
Weather: no significant weather observed at this time

METAR text: UNNT 181130Z 17006MPS 9999 OVC008 M09/M11 Q1027 R25/490150 R16/490150 NOSIG RMK QFE760/1014
Conditions at: UNNT (TOLMACHEVO , RU) observed 1130 UTC 18 January 2019
Temperature: -9.0°C (16°F)
Dewpoint: -11.0°C (12°F) [RH = 85%]
Pressure (altimeter): 30.32 inches Hg (1027.0 mb)
Winds: from the S (170 degrees) at 14 MPH (12 knots; 6.2 m/s)
Visibility: 6 or more miles (10+ km)
Ceiling: 800 feet AGL
Clouds: overcast cloud deck at 800 feet AGL
Weather: no significant weather observed at this time

METAR text: UNNT 181100Z 17005MPS 9999 SCT008 M10/M12 Q1027 R25/490150 R16/490150 NOSIG RMK QFE760/1014
Conditions at: UNNT (TOLMACHEVO , RU) observed 1100 UTC 18 January 2019
Temperature: -10.0°C (14°F)
Dewpoint: -12.0°C (10°F) [RH = 85%]
Pressure (altimeter): 30.32 inches Hg (1027.0 mb)
Winds: from the S (170 degrees) at 12 MPH (10 knots; 5.1 m/s)
Visibility: 6 or more miles (10+ km)
Ceiling: at least 12,000 feet AGL
Clouds: scattered clouds at 800 feet AGL
Weather: no significant weather observed at this time

METAR text: UNNT 181030Z 17006MPS 9999 NSC M10/M12 Q1028 R25/490150 R16/490150 NOSIG RMK QFE761/1014
Conditions at: UNNT (TOLMACHEVO , RU) observed 1030 UTC 18 January 2019
Temperature: -10.0°C (14°F)
Dewpoint: -12.0°C (10°F) [RH = 85%]
Pressure (altimeter): 30.35 inches Hg (1028.0 mb)
Winds: from the S (170 degrees) at 14 MPH (12 knots; 6.2 m/s)
Visibility: 6 or more miles (10+ km)
Ceiling: at least 12,000 feet AGL
Clouds: sky clear below 12,000 feet AGL
Weather: no significant weather observed at this time

METAR text: UNNT 181000Z 16007MPS CAVOK M10/M13 Q1028 R25/490150 R16/490150 NOSIG RMK QFE761/1015
Conditions at: UNNT (TOLMACHEVO , RU) observed 1000 UTC 18 January 2019
Temperature: -10.0°C (14°F)
Dewpoint: -13.0°C ( 9°F) [RH = 79%]
Pressure (altimeter): 30.35 inches Hg (1028.0 mb)
Winds: from the SSE (160 degrees) at 16 MPH (14 knots; 7.2 m/s)
Visibility: 6 or more miles (10+ km)
Ceiling: ceiling and visibility are OK
Clouds: unknown
Weather: no significant weather observed at this time

METAR text: UNNT 180930Z 16006MPS CAVOK M10/M13 Q1028 R25/490150 R16/490150 NOSIG RMK QFE761/1015
Conditions at: UNNT (TOLMACHEVO , RU) observed 0930 UTC 18 January 2019
Temperature: -10.0°C (14°F)
Dewpoint: -13.0°C ( 9°F) [RH = 79%]
Pressure (altimeter): 30.35 inches Hg (1028.0 mb)
Winds: from the SSE (160 degrees) at 14 MPH (12 knots; 6.2 m/s)
Visibility: 6 or more miles (10+ km)
Ceiling: ceiling and visibility are OK
Clouds: unknown
Weather: no significant weather observed at this time

METAR text: UNNT 180900Z 15006MPS CAVOK M10/M13 Q1029 R25/490150 R16/490150 NOSIG RMK QFE761/1015
Conditions at: UNNT (TOLMACHEVO , RU) observed 0900 UTC 18 January 2019
Temperature: -10.0°C (14°F)
Dewpoint: -13.0°C ( 9°F) [RH = 79%]
Pressure (altimeter): 30.38 inches Hg (1029.0 mb)
Winds: from the SSE (150 degrees) at 14 MPH (12 knots; 6.2 m/s)
Visibility: 6 or more miles (10+ km)
Ceiling: ceiling and visibility are OK
Clouds: unknown
Weather: no significant weather observed at this time

METAR text: UNNT 180830Z 15006MPS CAVOK M10/M13 Q1029 R25/490150 R16/490150 NOSIG RMK QFE762/1016
Conditions at: UNNT (TOLMACHEVO , RU) observed 0830 UTC 18 January 2019
Temperature: -10.0°C (14°F)
Dewpoint: -13.0°C ( 9°F) [RH = 79%]
Pressure (altimeter): 30.38 inches Hg (1029.0 mb)
Winds: from the SSE (150 degrees) at 14 MPH (12 knots; 6.2 m/s)
Visibility: 6 or more miles (10+ km)
Ceiling: ceiling and visibility are OK
Clouds: unknown
Weather: no significant weather observed at this time

METAR text: UNNT 180800Z 16006MPS 9999 NSC M10/M13 Q1029 R25/490150 R16/490150 NOSIG RMK QFE762/1016
Conditions at: UNNT (TOLMACHEVO , RU) observed 0800 UTC 18 January 2019
Temperature: -10.0°C (14°F)
Dewpoint: -13.0°C ( 9°F) [RH = 79%]
Pressure (altimeter): 30.38 inches Hg (1029.0 mb)
Winds: from the SSE (160 degrees) at 14 MPH (12 knots; 6.2 m/s)
Visibility: 6 or more miles (10+ km)
Ceiling: at least 12,000 feet AGL
Clouds: sky clear below 12,000 feet AGL
Weather: no significant weather observed at this time

METAR text: UNNT 180730Z 16006MPS CAVOK M11/M12 Q1030 R25/490150 R16/490150 NOSIG RMK QFE762/1017
Conditions at: UNNT (TOLMACHEVO , RU) observed 0730 UTC 18 January 2019
Temperature: -11.0°C (12°F)
Dewpoint: -12.0°C (10°F) [RH = 92%]
Pressure (altimeter): 30.41 inches Hg (1030.0 mb)
Winds: from the SSE (160 degrees) at 14 MPH (12 knots; 6.2 m/s)
Visibility: 6 or more miles (10+ km)
Ceiling: ceiling and visibility are OK
Clouds: unknown
Weather: no significant weather observed at this time

METAR text: UNNT 180700Z 17004MPS CAVOK M10/M12 Q1030 R25/490150 R16/490150 NOSIG RMK QFE762/1017
Conditions at: UNNT (TOLMACHEVO , RU) observed 0700 UTC 18 January 2019
Temperature: -10.0°C (14°F)
Dewpoint: -12.0°C (10°F) [RH = 85%]
Pressure (altimeter): 30.41 inches Hg (1030.0 mb)
Winds: from the S (170 degrees) at 9 MPH (8 knots; 4.1 m/s)
Visibility: 6 or more miles (10+ km)
Ceiling: ceiling and visibility are OK
Clouds: unknown
Weather: no significant weather observed at this time

METAR text: UNNT 180630Z 17004MPS CAVOK M11/M12 Q1030 R25/490150 R16/490150 NOSIG RMK QFE763/1017
Conditions at: UNNT (TOLMACHEVO , RU) observed 0630 UTC 18 January 2019
Temperature: -11.0°C (12°F)
Dewpoint: -12.0°C (10°F) [RH = 92%]
Pressure (altimeter): 30.41 inches Hg (1030.0 mb)
Winds: from the S (170 degrees) at 9 MPH (8 knots; 4.1 m/s)
Visibility: 6 or more miles (10+ km)
Ceiling: ceiling and visibility are OK
Clouds: unknown
Weather: no significant weather observed at this time

METAR text: UNNT 180600Z 19002MPS CAVOK M11/M12 Q1031 R25/490150 R16/490150 NOSIG RMK QFE763/1017
Conditions at: UNNT (TOLMACHEVO , RU) observed 0600 UTC 18 January 2019
Temperature: -11.0°C (12°F)
Dewpoint: -12.0°C (10°F) [RH = 92%]
Pressure (altimeter): 30.44 inches Hg (1031.0 mb)
Winds: from the S (190 degrees) at 5 MPH (4 knots; 2.1 m/s)
Visibility: 6 or more miles (10+ km)
Ceiling: ceiling and visibility are OK
Clouds: unknown
Weather: no significant weather observed at this time

METAR text: UNNT 180530Z 17003MPS CAVOK M12/M14 Q1031 R25/490150 R16/490150 NOSIG RMK QFE763/1017
Conditions at: UNNT (TOLMACHEVO , RU) observed 0530 UTC 18 January 2019
Temperature: -12.0°C (10°F)
Dewpoint: -14.0°C ( 7°F) [RH = 85%]
Pressure (altimeter): 30.44 inches Hg (1031.0 mb)
Winds: from the S (170 degrees) at 7 MPH (6 knots; 3.1 m/s)
Visibility: 6 or more miles (10+ km)
Ceiling: ceiling and visibility are OK
Clouds: unknown
Weather: no significant weather observed at this time

METAR text: UNNT 180500Z 16003MPS 9000 NSC M13/M15 Q1031 R25/490150 R16/490150 NOSIG RMK QFE763/1017
Conditions at: UNNT (TOLMACHEVO , RU) observed 0500 UTC 18 January 2019
Temperature: -13.0°C ( 9°F)
Dewpoint: -15.0°C ( 5°F) [RH = 85%]
Pressure (altimeter): 30.44 inches Hg (1031.0 mb)
Winds: from the SSE (160 degrees) at 7 MPH (6 knots; 3.1 m/s)
Visibility: 6 miles ( 9 km)
Ceiling: at least 12,000 feet AGL
Clouds: sky clear below 12,000 feet AGL
Weather: no significant weather observed at this time

METAR text: UNNT 180430Z 16004MPS 9999 -SN NSC M14/M16 Q1031 R25/490150 R16/490150 NOSIG RMK QFE763/1018
Conditions at: UNNT (TOLMACHEVO , RU) observed 0430 UTC 18 January 2019
Temperature: -14.0°C ( 7°F)
Dewpoint: -16.0°C ( 3°F) [RH = 85%]
Pressure (altimeter): 30.44 inches Hg (1031.0 mb)
Winds: from the SSE (160 degrees) at 9 MPH (8 knots; 4.1 m/s)
Visibility: 6 or more miles (10+ km)
Ceiling: at least 12,000 feet AGL
Clouds: sky clear below 12,000 feet AGL
Weather: -SN  (light snow)

METAR text: UNNT 180400Z 16005MPS 9000 -SN SCT007 M15/M17 Q1031 R25/490150 R16/490150 NOSIG RMK QFE763/1018
Conditions at: UNNT (TOLMACHEVO , RU) observed 0400 UTC 18 January 2019
Temperature: -15.0°C ( 5°F)
Dewpoint: -17.0°C ( 1°F) [RH = 85%]
Pressure (altimeter): 30.44 inches Hg (1031.0 mb)
Winds: from the SSE (160 degrees) at 12 MPH (10 knots; 5.1 m/s)
Visibility: 6 miles ( 9 km)
Ceiling: at least 12,000 feet AGL
Clouds: scattered clouds at 700 feet AGL
Weather: -SN  (light snow)

METAR text: UNNT 180330Z 16003MPS 9000 -SN SCT007 M16/M18 Q1032 R25/490150 R16/490150 NOSIG RMK QFE764/1018
Conditions at: UNNT (TOLMACHEVO , RU) observed 0330 UTC 18 January 2019
Temperature: -16.0°C ( 3°F)
Dewpoint: -18.0°C (-0°F) [RH = 85%]
Pressure (altimeter): 30.47 inches Hg (1032.0 mb)
Winds: from the SSE (160 degrees) at 7 MPH (6 knots; 3.1 m/s)
Visibility: 6 miles ( 9 km)
Ceiling: at least 12,000 feet AGL
Clouds: scattered clouds at 700 feet AGL
Weather: -SN  (light snow)

METAR text: UNNT 180300Z 17004MPS 7000 -SN OVC007 M16/M18 Q1032 R25/490150 R16/490150 NOSIG RMK QFE764/1019
Conditions at: UNNT (TOLMACHEVO , RU) observed 0300 UTC 18 January 2019
Temperature: -16.0°C ( 3°F)
Dewpoint: -18.0°C (-0°F) [RH = 85%]
Pressure (altimeter): 30.47 inches Hg (1032.0 mb)
Winds: from the S (170 degrees) at 9 MPH (8 knots; 4.1 m/s)
Visibility: 4 miles ( 7 km)
Ceiling: 700 feet AGL
Clouds: overcast cloud deck at 700 feet AGL
Weather: -SN  (light snow)

METAR text: UNNT 180230Z 16004MPS 6000 -SN OVC006 M16/M18 Q1032 R25/490150 R16/490155 NOSIG RMK QFE764/1019
Conditions at: UNNT (TOLMACHEVO , RU) observed 0230 UTC 18 January 2019
Temperature: -16.0°C ( 3°F)
Dewpoint: -18.0°C (-0°F) [RH = 85%]
Pressure (altimeter): 30.47 inches Hg (1032.0 mb)
Winds: from the SSE (160 degrees) at 9 MPH (8 knots; 4.1 m/s)
Visibility: 4 miles ( 6 km)
Ceiling: 600 feet AGL
Clouds: overcast cloud deck at 600 feet AGL
Weather: -SN  (light snow)

Forecast for: UNNT (TOLMACHEVO , RU)
Text: TAF UNNT 191100Z 1912/2012 18006G12MPS CAVOK
Forecast period: 1200 UTC 19 January 2019 to 0300 UTC 20 January 2019
Forecast type: FROM: standard forecast or significant change
Winds: from the S (180 degrees) at 14 MPH (12 knots; 6.2 m/s)
gusting to 26 MPH (23 knots; 11.8 m/s)
Visibility: 6 or more miles 10+ km)
Ceiling: unknown
Clouds: missing
Weather: NSW  (no significant weather)
Text: TEMPO 1912/2003 13003G08MPS 1500 FU BR BKN005
Forecast period: 1200 UTC 19 January 2019 to 0300 UTC 20 January 2019
Forecast type: TEMPORARY: The following changes expected for less than half the time period
Winds: from the SE (130 degrees) at 7 MPH (6 knots; 3.1 m/s)
gusting to 18 MPH (16 knots; 8.2 m/s)
Visibility: 0.93 miles (1.50 km)
Ceiling: 500 feet AGL
Clouds: broken clouds at 500 feet AGL
Weather: FU BR  (smoke, mist)
Text: FM200300 24006G12MPS 9999 BKN011CB
Forecast period: 0300 to 1200 UTC 20 January 2019
Forecast type: FROM: standard forecast or significant change
Winds: from the WSW (240 degrees) at 14 MPH (12 knots; 6.2 m/s)
gusting to 26 MPH (23 knots; 11.8 m/s)
Visibility: 6 or more miles 10+ km)
Ceiling: 1100 feet AGL
Clouds: broken clouds at 1100 feet AGL
Weather: no significant weather forecast for this period
Text: TEMPO 2003/2012 3100 -SHSN BKN005 BKN016CB
Forecast period: 0300 to 1200 UTC 20 January 2019
Forecast type: TEMPORARY: The following changes expected for less than half the time period
Visibility: 1.93 miles (3.11 km)
Ceiling: 500 feet AGL
Clouds: broken clouds at 500 feet AGL
broken clouds at 1600 feet AGL
Weather: -SHSN  (light snow showers)